サンフアン の空港の天気 - METARとTAF

ルイス・ムニョス・マリン国際空港 ( TJSJ / SJU ) - プエルトリコ サンフアン
飛行場実況気象(Metar)
観測時間09/24 18:56 AST (09/24 22:56 UTC)
風向・風速西 2m/s
視程10km以上
天気現象
全天の4割程度の雲 雲底高度 1520m
全天の4割程度の雲 雲底高度 3050m
気温30.6℃
湿度68%
気圧1013.5hPa
METARTJSJ 242256Z 28003KT 10SM SCT050 SCT100 31/24 A2993 RMK AO2 RAB50E51 SLP135 P0000 T03060239
過去の天気等 Google飛行場航空写真 Wunderground天気予報

過去48時間のMETAR

飛行場予報(TAF)
発表時間: 9/24 19:20 AST (9/24 23:20 UTC)
予報対象時間: 24日20時 AST ~ 25日20時 AST
風向・風速不定 3m/s
視程10km以上
少しの雲 雲底高度 760m
25日9時 AST から
風向・風速北東 5m/s
視程10km以上
全天の4割程度の雲 雲底高度 910m
25日17時 AST から
風向・風速東北東 5m/s
視程10km以上
全天の4割程度の雲 雲底高度 910m
全天の4割程度の雲 雲底高度 1830m
TJSJ 242320Z 2500/2524 VRB06KT P6SM FEW025
FM251300 04010KT P6SM SCT030
FM252100 07010KT P6SM SCT030 SCT060